createdAt,value
2017-10-13T00:00:32.751Z,11.20
2017-10-13T00:01:06.512Z,11.20
2017-10-13T00:01:40.248Z,11.20
2017-10-13T00:02:14.743Z,11.20
2017-10-13T00:02:48.840Z,11.20
2017-10-13T00:03:22.573Z,11.20
2017-10-13T00:03:56.325Z,11.20
2017-10-13T00:04:30.822Z,11.20
2017-10-13T00:05:04.553Z,11.20
2017-10-13T00:05:38.284Z,11.20
2017-10-13T00:06:12.027Z,11.20
2017-10-13T00:06:46.550Z,11.20
2017-10-13T00:07:20.284Z,11.20
2017-10-13T00:07:54.113Z,11.20
2017-10-13T00:08:28.611Z,11.20
2017-10-13T00:09:02.366Z,11.20
2017-10-13T00:09:37.152Z,11.30
2017-10-13T00:10:10.880Z,11.20
2017-10-13T00:10:44.712Z,11.30
2017-10-13T00:11:19.203Z,11.30
2017-10-13T00:11:52.932Z,11.30
2017-10-13T00:12:26.670Z,11.30
2017-10-13T00:13:00.718Z,11.30
2017-10-13T00:13:34.456Z,11.30
2017-10-13T00:14:08.193Z,11.30
2017-10-13T00:14:41.936Z,11.30
2017-10-13T00:15:15.689Z,11.30
2017-10-13T00:15:49.424Z,11.30
2017-10-13T00:16:23.153Z,11.30
2017-10-13T00:16:57.654Z,11.30
2017-10-13T00:17:32.176Z,11.30
2017-10-13T00:18:05.933Z,11.30
2017-10-13T00:18:39.656Z,11.30
2017-10-13T00:19:13.392Z,11.30
2017-10-13T00:19:47.121Z,11.30
2017-10-13T00:20:21.634Z,11.20
2017-10-13T00:20:56.129Z,11.20
2017-10-13T00:21:31.576Z,11.20
2017-10-13T00:22:06.104Z,11.20
2017-10-13T00:22:40.059Z,11.20
2017-10-13T00:23:13.822Z,11.20
2017-10-13T00:24:27.632Z,11.20
2017-10-13T00:25:01.180Z,11.20
2017-10-13T00:25:35.683Z,11.20
2017-10-13T00:26:09.412Z,11.10
2017-10-13T00:26:43.141Z,11.10
2017-10-13T00:27:16.876Z,11.20
2017-10-13T00:27:51.380Z,11.20
2017-10-13T00:28:26.263Z,11.20
2017-10-13T00:29:00.029Z,11.20
2017-10-13T00:29:33.603Z,11.20
2017-10-13T00:30:07.340Z,11.20
2017-10-13T00:30:41.067Z,11.20
2017-10-13T00:31:15.383Z,11.20
2017-10-13T00:31:48.929Z,11.10
2017-10-13T00:32:22.473Z,11.20
2017-10-13T00:32:56.036Z,11.20
2017-10-13T00:33:30.585Z,11.20
2017-10-13T00:34:04.311Z,11.20
2017-10-13T00:34:38.057Z,11.20
2017-10-13T00:35:11.797Z,11.20
2017-10-13T00:35:45.528Z,11.20
2017-10-13T00:36:19.255Z,11.20
2017-10-13T00:36:52.983Z,11.20
2017-10-13T00:37:27.474Z,11.20
2017-10-13T00:38:01.218Z,11.20
2017-10-13T00:38:34.970Z,11.20
2017-10-13T00:39:09.485Z,11.20
2017-10-13T00:39:43.989Z,11.20
2017-10-13T00:40:18.498Z,11.20
2017-10-13T00:40:53.028Z,11.20
2017-10-13T00:41:26.784Z,11.20
2017-10-13T00:42:00.577Z,11.30
2017-10-13T00:42:34.311Z,11.20
2017-10-13T00:43:08.070Z,11.20
2017-10-13T00:43:42.260Z,11.30
2017-10-13T00:44:15.998Z,11.30
2017-10-13T00:44:50.158Z,11.30
2017-10-13T00:45:23.890Z,11.20
2017-10-13T00:45:57.651Z,11.20
2017-10-13T00:46:31.956Z,11.20
2017-10-13T00:47:06.444Z,11.20
2017-10-13T00:47:40.219Z,11.20
2017-10-13T00:48:13.950Z,11.20
2017-10-13T00:48:48.483Z,11.30
2017-10-13T00:49:22.219Z,11.30
2017-10-13T00:49:55.962Z,11.20
2017-10-13T00:50:29.691Z,11.20
2017-10-13T00:51:03.076Z,11.20
2017-10-13T00:51:36.811Z,11.20
2017-10-13T00:52:11.316Z,11.30
2017-10-13T00:52:45.823Z,11.30
2017-10-13T00:53:20.338Z,11.30
2017-10-13T00:53:54.976Z,11.30
2017-10-13T00:54:28.549Z,11.30
2017-10-13T00:55:01.953Z,11.40
2017-10-13T00:55:35.008Z,11.40
2017-10-13T00:56:08.060Z,11.40
2017-10-13T00:56:42.223Z,11.40
2017-10-13T00:57:15.767Z,11.40
2017-10-13T00:57:48.623Z,11.40
2017-10-13T00:58:23.134Z,11.50
2017-10-13T00:58:56.560Z,11.40
2017-10-13T00:59:30.301Z,11.50
2017-10-13T01:00:04.453Z,11.50
2017-10-13T01:00:38.201Z,11.40
2017-10-13T01:01:12.359Z,11.50
2017-10-13T01:01:46.092Z,11.40
2017-10-13T01:02:20.609Z,11.50
2017-10-13T01:02:54.005Z,11.40
2017-10-13T01:03:27.427Z,11.40
2017-10-13T01:04:01.191Z,11.40
2017-10-13T01:04:34.934Z,11.40
2017-10-13T01:05:08.677Z,11.40
2017-10-13T01:05:42.415Z,11.40
2017-10-13T01:06:16.904Z,11.40
2017-10-13T01:06:50.648Z,11.40
2017-10-13T01:07:24.375Z,11.30
2017-10-13T01:07:58.112Z,11.40
2017-10-13T01:08:32.612Z,11.40
2017-10-13T01:09:07.147Z,11.30
2017-10-13T01:09:41.137Z,11.30
2017-10-13T01:10:14.874Z,11.30
2017-10-13T01:10:48.269Z,11.40
2017-10-13T01:11:22.000Z,11.30
2017-10-13T01:11:55.383Z,11.30
2017-10-13T01:12:29.885Z,11.30
2017-10-13T01:13:03.623Z,11.30
2017-10-13T01:13:36.492Z,11.30
2017-10-13T01:14:10.300Z,11.30
2017-10-13T01:14:43.715Z,11.30
2017-10-13T01:15:18.214Z,11.30
2017-10-13T01:15:51.595Z,11.30
2017-10-13T01:16:26.104Z,11.30
2017-10-13T01:16:59.834Z,11.30
2017-10-13T01:17:33.594Z,11.30
2017-10-13T01:18:07.744Z,11.30
2017-10-13T01:18:41.499Z,11.30
2017-10-13T01:19:15.332Z,11.30
2017-10-13T01:19:48.377Z,11.30
2017-10-13T01:20:22.110Z,11.30
2017-10-13T01:20:55.147Z,11.30
2017-10-13T01:21:28.187Z,11.30
2017-10-13T01:22:01.232Z,11.30
2017-10-13T01:22:34.287Z,11.30
2017-10-13T01:23:07.668Z,11.30
2017-10-13T01:23:41.103Z,11.30
2017-10-13T01:24:14.501Z,11.30
2017-10-13T01:24:48.320Z,11.30
2017-10-13T01:25:21.469Z,11.30
2017-10-13T01:25:55.279Z,11.30
2017-10-13T01:26:28.682Z,11.30
2017-10-13T01:27:01.718Z,11.30
2017-10-13T01:27:35.535Z,11.30
2017-10-13T01:28:08.917Z,11.30
2017-10-13T01:28:41.773Z,11.30
2017-10-13T01:29:14.821Z,11.30
2017-10-13T01:29:48.591Z,11.30
2017-10-13T01:30:21.984Z,11.30
2017-10-13T01:30:55.367Z,11.30
2017-10-13T01:31:28.405Z,11.30
2017-10-13T01:32:01.447Z,11.30
2017-10-13T01:32:35.260Z,11.30
2017-10-13T01:33:08.299Z,11.30
2017-10-13T01:33:41.702Z,11.40
2017-10-13T01:34:15.853Z,11.40
2017-10-13T01:34:48.925Z,11.40
2017-10-13T01:35:21.963Z,11.30
2017-10-13T01:35:55.014Z,11.40
2017-10-13T01:36:28.852Z,11.30
2017-10-13T01:37:01.892Z,11.30
2017-10-13T01:37:36.062Z,11.30
2017-10-13T01:38:09.101Z,11.30
2017-10-13T01:38:42.487Z,11.30
2017-10-13T01:39:15.527Z,11.30
2017-10-13T01:39:49.702Z,11.30
2017-10-13T01:40:23.430Z,11.30
2017-10-13T01:40:56.805Z,11.30
2017-10-13T01:41:30.200Z,11.30
2017-10-13T01:42:03.547Z,11.30
2017-10-13T01:42:36.931Z,11.30
2017-10-13T01:43:09.967Z,11.30
2017-10-13T01:43:43.017Z,11.40
2017-10-13T01:44:16.071Z,11.40
2017-10-13T01:44:50.577Z,11.40
2017-10-13T01:45:24.735Z,11.40
2017-10-13T01:45:58.468Z,11.40
2017-10-13T01:46:32.966Z,11.40
2017-10-13T01:47:06.975Z,11.40
2017-10-13T01:47:41.462Z,11.40
2017-10-13T01:48:14.849Z,11.40
2017-10-13T01:48:47.888Z,11.40
2017-10-13T01:49:21.633Z,11.40
2017-10-13T01:49:55.272Z,11.40
2017-10-13T01:50:28.319Z,11.40
2017-10-13T01:51:01.364Z,11.40
2017-10-13T01:51:35.186Z,11.40
2017-10-13T01:52:08.586Z,11.40
2017-10-13T01:52:42.123Z,11.40
2017-10-13T01:53:16.633Z,11.40
2017-10-13T01:53:51.140Z,11.40
2017-10-13T01:54:25.763Z,11.40
2017-10-13T01:54:59.912Z,11.40
2017-10-13T01:55:32.959Z,11.40
2017-10-13T01:56:06.692Z,11.30
2017-10-13T01:56:39.897Z,11.30
2017-10-13T01:57:13.338Z,11.30
2017-10-13T01:57:46.391Z,11.30
2017-10-13T01:58:19.439Z,11.30
2017-10-13T01:58:53.937Z,11.30
2017-10-13T01:59:27.142Z,11.30
2017-10-13T02:00:00.872Z,11.40
2017-10-13T02:00:34.619Z,11.40
2017-10-13T02:01:08.439Z,11.40
2017-10-13T02:01:41.480Z,11.40
2017-10-13T02:02:16.015Z,11.40
2017-10-13T02:02:49.415Z,11.40
2017-10-13T02:03:23.544Z,11.40
2017-10-13T02:03:57.283Z,11.40
2017-10-13T02:04:30.676Z,11.40
2017-10-13T02:05:04.068Z,11.40
2017-10-13T02:05:37.107Z,11.40
2017-10-13T02:06:11.612Z,11.40
2017-10-13T02:06:45.766Z,11.50
2017-10-13T02:07:19.136Z,11.50
2017-10-13T02:07:52.898Z,11.50
2017-10-13T02:08:26.296Z,11.40
2017-10-13T02:09:00.034Z,11.40
2017-10-13T02:09:33.415Z,11.40
2017-10-13T02:10:06.796Z,11.40
2017-10-13T02:10:40.196Z,11.40
2017-10-13T02:11:14.721Z,11.40
2017-10-13T02:11:48.464Z,11.40
2017-10-13T02:12:22.732Z,11.40
2017-10-13T02:12:56.613Z,11.40
2017-10-13T02:13:31.109Z,11.50
2017-10-13T02:14:05.606Z,11.50
2017-10-13T02:14:39.347Z,11.40
2017-10-13T02:15:13.098Z,11.50
2017-10-13T02:15:47.278Z,11.50
2017-10-13T02:16:21.269Z,11.50
2017-10-13T02:16:55.220Z,11.50
2017-10-13T02:17:28.716Z,11.50
2017-10-13T02:18:02.451Z,11.50
2017-10-13T02:18:37.691Z,11.50
2017-10-13T02:19:11.434Z,11.50
2017-10-13T02:19:45.166Z,11.50
2017-10-13T02:20:18.234Z,11.50
2017-10-13T02:20:51.614Z,11.50
2017-10-13T02:21:26.227Z,11.50
2017-10-13T02:22:00.047Z,11.50
2017-10-13T02:22:34.590Z,11.50
2017-10-13T02:23:07.984Z,11.40
2017-10-13T02:23:41.725Z,11.50
2017-10-13T02:24:16.212Z,11.50
2017-10-13T02:24:52.979Z,11.40
2017-10-13T02:25:26.794Z,11.40
2017-10-13T02:26:01.287Z,11.50
2017-10-13T02:26:35.061Z,11.40
2017-10-13T02:27:08.833Z,11.50
2017-10-13T02:27:42.928Z,11.50
2017-10-13T02:28:15.977Z,11.50
2017-10-13T02:28:49.799Z,11.50
2017-10-13T02:29:23.524Z,11.50
2017-10-13T02:29:56.908Z,11.50
2017-10-13T02:30:30.319Z,11.50
2017-10-13T02:31:04.832Z,11.50
2017-10-13T02:31:38.216Z,11.50
2017-10-13T02:32:11.603Z,11.50
2017-10-13T02:32:46.241Z,11.40
2017-10-13T02:33:19.987Z,11.40
2017-10-13T02:33:54.486Z,11.40
2017-10-13T02:34:28.991Z,11.50
2017-10-13T02:35:03.164Z,11.50
2017-10-13T02:35:36.929Z,11.50
2017-10-13T02:36:09.972Z,11.50
2017-10-13T02:36:44.143Z,11.50
2017-10-13T02:37:17.880Z,11.50
2017-10-13T02:37:52.073Z,11.50
2017-10-13T02:38:26.244Z,11.50
2017-10-13T02:38:59.628Z,11.50
2017-10-13T02:39:33.016Z,11.50
2017-10-13T02:40:07.172Z,11.50
2017-10-13T02:40:40.556Z,11.50
2017-10-13T02:41:13.694Z,11.50
2017-10-13T02:41:48.188Z,11.50
2017-10-13T02:42:21.584Z,11.50
2017-10-13T02:42:56.007Z,11.50
2017-10-13T02:43:29.477Z,11.50
2017-10-13T02:44:03.984Z,11.50
2017-10-13T02:44:38.492Z,11.50
2017-10-13T02:45:12.649Z,11.50
2017-10-13T02:45:46.039Z,11.50
2017-10-13T02:46:19.341Z,11.50
2017-10-13T02:46:53.074Z,11.50
2017-10-13T02:47:26.465Z,11.50
2017-10-13T02:48:00.716Z,11.50
2017-10-13T02:48:34.938Z,11.50
2017-10-13T02:49:09.442Z,11.50
2017-10-13T02:49:43.947Z,11.50
2017-10-13T02:50:17.676Z,11.50
2017-10-13T02:50:51.400Z,11.50
2017-10-13T02:51:24.459Z,11.50
2017-10-13T02:51:57.517Z,11.50
2017-10-13T02:52:31.292Z,11.50
2017-10-13T02:53:05.316Z,11.50
2017-10-13T02:53:39.056Z,11.50
2017-10-13T02:54:13.592Z,11.50
2017-10-13T02:54:47.327Z,11.50
2017-10-13T02:55:21.064Z,11.50
2017-10-13T02:55:54.816Z,11.50
2017-10-13T02:56:28.797Z,11.40
2017-10-13T02:57:02.365Z,11.40
2017-10-13T02:57:36.099Z,11.40
2017-10-13T02:58:11.641Z,11.40
2017-10-13T02:58:46.987Z,11.40
2017-10-13T02:59:21.499Z,11.40
2017-10-13T02:59:55.999Z,11.30
2017-10-13T03:00:30.508Z,11.30
2017-10-13T03:01:05.008Z,11.30
2017-10-13T03:01:38.737Z,11.30
2017-10-13T03:02:12.474Z,11.30
2017-10-13T03:02:46.212Z,11.30
2017-10-13T03:03:20.273Z,11.30
2017-10-13T03:03:55.520Z,11.30
2017-10-13T03:04:30.048Z,11.30
2017-10-13T03:05:03.437Z,11.30
2017-10-13T03:05:37.168Z,11.30
2017-10-13T03:06:10.893Z,11.30
2017-10-13T03:06:45.424Z,11.20
2017-10-13T03:07:19.220Z,11.20
2017-10-13T03:07:52.964Z,11.20
2017-10-13T03:08:26.966Z,11.20
2017-10-13T03:09:01.489Z,11.30
2017-10-13T03:09:36.003Z,11.20
2017-10-13T03:10:10.511Z,11.30
2017-10-13T03:10:45.018Z,11.30
2017-10-13T03:11:19.532Z,11.30
2017-10-13T03:11:54.971Z,11.30
2017-10-13T03:12:28.745Z,11.30
2017-10-13T03:13:03.249Z,11.30
2017-10-13T03:13:37.390Z,11.30
2017-10-13T03:14:11.123Z,11.30
2017-10-13T03:14:44.859Z,11.20
2017-10-13T03:15:18.588Z,11.20
2017-10-13T03:15:52.345Z,11.30
2017-10-13T03:16:25.908Z,11.30
2017-10-13T03:17:00.412Z,11.20
2017-10-13T03:17:33.984Z,11.20
2017-10-13T03:18:07.733Z,11.20
2017-10-13T03:18:41.825Z,11.20
2017-10-13T03:19:15.552Z,11.20
2017-10-13T03:19:49.297Z,11.20
2017-10-13T03:20:22.684Z,11.20
2017-10-13T03:20:56.083Z,11.20
2017-10-13T03:21:29.479Z,11.20
2017-10-13T03:22:02.879Z,11.20
2017-10-13T03:22:36.623Z,11.20
2017-10-13T03:23:10.357Z,11.10
2017-10-13T03:23:44.416Z,11.20
2017-10-13T03:24:17.814Z,11.10
2017-10-13T03:24:51.552Z,11.10
2017-10-13T03:25:25.302Z,11.10
2017-10-13T03:25:59.044Z,11.10
2017-10-13T03:26:33.199Z,11.10
2017-10-13T03:27:06.954Z,11.10
2017-10-13T03:27:40.701Z,11.10
2017-10-13T03:28:14.442Z,11.10
2017-10-13T03:28:48.452Z,11.10
2017-10-13T03:29:22.196Z,11.00
2017-10-13T03:29:55.941Z,11.00
2017-10-13T03:30:29.336Z,11.10
2017-10-13T03:31:03.088Z,11.00
2017-10-13T03:31:36.825Z,11.00
2017-10-13T03:32:10.559Z,11.00
2017-10-13T03:32:45.051Z,11.00
2017-10-13T03:33:18.792Z,11.00
2017-10-13T03:33:52.797Z,11.00
2017-10-13T03:34:26.536Z,11.00
2017-10-13T03:35:00.261Z,11.00
2017-10-13T03:35:33.998Z,11.00
2017-10-13T03:36:07.740Z,11.00
2017-10-13T03:36:41.473Z,11.00
2017-10-13T03:37:15.209Z,11.00
2017-10-13T03:37:48.973Z,11.00
2017-10-13T03:38:22.723Z,11.00
2017-10-13T03:38:56.477Z,11.00
2017-10-13T03:39:31.061Z,11.00
2017-10-13T03:40:04.796Z,11.00
2017-10-13T03:40:38.523Z,11.00
2017-10-13T03:41:12.360Z,11.00
2017-10-13T03:41:46.515Z,11.00
2017-10-13T03:42:20.260Z,11.00
2017-10-13T03:42:53.463Z,11.00
2017-10-13T03:43:26.863Z,11.00
2017-10-13T03:44:00.430Z,11.00
2017-10-13T03:44:33.667Z,11.10
2017-10-13T03:45:07.169Z,11.00
2017-10-13T03:45:41.678Z,11.10
2017-10-13T03:46:15.291Z,11.10
2017-10-13T03:46:48.372Z,11.10
2017-10-13T03:47:21.784Z,11.10
2017-10-13T03:47:55.527Z,11.10
2017-10-13T03:48:28.924Z,11.10
2017-10-13T03:49:02.616Z,11.10
2017-10-13T03:49:36.351Z,11.10
2017-10-13T03:50:09.735Z,11.10
2017-10-13T03:50:43.715Z,11.20
2017-10-13T03:51:17.104Z,11.20
2017-10-13T03:51:50.858Z,11.20
2017-10-13T03:52:24.602Z,11.10
2017-10-13T03:52:58.355Z,11.20
2017-10-13T03:53:32.089Z,11.20
2017-10-13T03:54:05.820Z,11.20
2017-10-13T03:54:39.549Z,11.20
2017-10-13T03:55:12.934Z,11.20
2017-10-13T03:55:46.668Z,11.20
2017-10-13T03:56:20.053Z,11.20
2017-10-13T03:56:53.427Z,11.20
2017-10-13T03:57:27.930Z,11.20
2017-10-13T03:58:01.743Z,11.30
2017-10-13T03:58:35.474Z,11.20
2017-10-13T03:59:09.549Z,11.30
2017-10-13T03:59:43.280Z,11.30
2017-10-13T04:00:16.309Z,11.30
2017-10-13T04:00:49.344Z,11.30
2017-10-13T04:01:22.379Z,11.20
2017-10-13T04:01:55.413Z,11.30
2017-10-13T04:02:29.916Z,11.30
2017-10-13T04:03:04.411Z,11.30
2017-10-13T04:03:38.134Z,11.30
2017-10-13T04:04:12.244Z,11.30
2017-10-13T04:04:45.992Z,11.30
2017-10-13T04:05:19.385Z,11.30
2017-10-13T04:05:53.993Z,11.30
2017-10-13T04:06:28.615Z,11.30
2017-10-13T04:07:03.117Z,11.30
2017-10-13T04:07:37.636Z,11.30
2017-10-13T04:08:11.964Z,11.30
2017-10-13T04:08:45.715Z,11.30
2017-10-13T04:09:20.568Z,11.30
2017-10-13T04:09:54.313Z,11.30
2017-10-13T04:10:28.309Z,11.30
2017-10-13T04:11:02.049Z,11.30
2017-10-13T04:11:35.740Z,11.30
2017-10-13T04:12:09.284Z,11.30
2017-10-13T04:12:42.831Z,11.30
2017-10-13T04:13:16.383Z,11.30
2017-10-13T04:13:50.125Z,11.30
2017-10-13T04:14:24.187Z,11.20
2017-10-13T04:14:57.928Z,11.30
2017-10-13T04:15:31.660Z,11.30
2017-10-13T04:16:05.399Z,11.30
2017-10-13T04:16:39.134Z,11.20
2017-10-13T04:17:13.736Z,11.30
2017-10-13T04:17:48.232Z,11.20
2017-10-13T04:18:22.739Z,11.30
2017-10-13T04:18:57.256Z,11.30
2017-10-13T04:19:32.117Z,11.30
2017-10-13T04:20:05.854Z,11.30
2017-10-13T04:20:39.244Z,11.30
2017-10-13T04:21:13.754Z,11.30
2017-10-13T04:21:48.266Z,11.30
2017-10-13T04:22:22.772Z,11.30
2017-10-13T04:22:57.271Z,11.30
2017-10-13T04:23:31.004Z,11.30
2017-10-13T04:24:04.750Z,11.30
2017-10-13T04:24:38.808Z,11.30
2017-10-13T04:25:12.557Z,11.30
2017-10-13T04:25:47.068Z,11.30
2017-10-13T04:26:21.575Z,11.30
2017-10-13T04:26:56.082Z,11.30
2017-10-13T04:27:30.586Z,11.30
2017-10-13T04:28:05.093Z,11.30
2017-10-13T04:28:38.845Z,11.30
2017-10-13T04:29:12.593Z,11.30
2017-10-13T04:29:47.442Z,11.30
2017-10-13T04:30:21.176Z,11.30
2017-10-13T04:30:54.924Z,11.30
2017-10-13T04:31:28.652Z,11.30
2017-10-13T04:32:02.377Z,11.30
2017-10-13T04:32:36.884Z,11.30
2017-10-13T04:33:11.372Z,11.20
2017-10-13T04:33:44.916Z,11.20
2017-10-13T04:34:18.472Z,11.20
2017-10-13T04:34:52.482Z,11.20
2017-10-13T04:35:26.215Z,11.20
2017-10-13T04:35:59.949Z,11.20
2017-10-13T04:36:34.451Z,11.20
2017-10-13T04:37:08.945Z,11.20
2017-10-13T04:37:42.343Z,11.20
2017-10-13T04:38:16.839Z,11.20
2017-10-13T04:38:50.569Z,11.20
2017-10-13T04:39:24.317Z,11.20
2017-10-13T04:39:58.357Z,11.20
2017-10-13T04:40:32.104Z,11.20
2017-10-13T04:41:05.841Z,11.20
2017-10-13T04:41:39.588Z,11.20
2017-10-13T04:42:13.322Z,11.20
2017-10-13T04:42:47.059Z,11.20
2017-10-13T04:43:20.809Z,11.20
2017-10-13T04:43:54.555Z,11.20
2017-10-13T04:44:28.285Z,11.20
2017-10-13T04:45:02.398Z,11.20
2017-10-13T04:45:36.144Z,11.20
2017-10-13T04:46:10.642Z,11.20
2017-10-13T04:46:44.390Z,11.20
2017-10-13T04:47:18.120Z,11.20
2017-10-13T04:47:51.846Z,11.20
2017-10-13T04:48:25.587Z,11.20
2017-10-13T04:48:59.328Z,11.20
2017-10-13T04:49:33.064Z,11.20
2017-10-13T04:50:07.153Z,11.20
2017-10-13T04:50:40.890Z,11.20
2017-10-13T04:51:15.400Z,11.20
2017-10-13T04:51:49.900Z,11.20
2017-10-13T04:52:24.399Z,11.10
2017-10-13T04:52:58.146Z,11.10
2017-10-13T04:53:31.883Z,11.10
2017-10-13T04:54:05.694Z,11.20
2017-10-13T04:54:40.227Z,11.10
2017-10-13T04:55:14.232Z,11.10
2017-10-13T04:55:47.972Z,11.10
2017-10-13T04:56:21.688Z,11.20
2017-10-13T04:56:56.179Z,11.20
2017-10-13T04:57:29.953Z,11.10
2017-10-13T04:58:03.684Z,11.10
2017-10-13T04:58:38.186Z,11.20
2017-10-13T04:59:12.677Z,11.20
2017-10-13T04:59:46.448Z,11.20
2017-10-13T05:00:20.541Z,11.20
2017-10-13T05:00:55.281Z,11.20
2017-10-13T05:01:29.016Z,11.20
2017-10-13T05:02:02.748Z,11.20
2017-10-13T05:02:36.503Z,11.20
2017-10-13T05:03:10.274Z,11.30
2017-10-13T05:03:43.825Z,11.30
2017-10-13T05:04:17.585Z,11.30
2017-10-13T05:04:51.332Z,11.30
2017-10-13T05:05:26.217Z,11.30
2017-10-13T05:05:59.788Z,11.30
2017-10-13T05:06:33.525Z,11.30
2017-10-13T05:07:08.035Z,11.30
2017-10-13T05:07:42.513Z,11.40
2017-10-13T05:08:16.032Z,11.30
2017-10-13T05:08:50.513Z,11.40
2017-10-13T05:09:24.215Z,11.40
2017-10-13T05:09:57.920Z,11.40
2017-10-13T05:10:32.743Z,11.40
2017-10-13T05:11:07.226Z,11.40
2017-10-13T05:11:41.038Z,11.40
2017-10-13T05:12:15.512Z,11.30
2017-10-13T05:12:49.247Z,11.30
2017-10-13T05:13:23.195Z,11.30
2017-10-13T05:13:56.899Z,11.30
2017-10-13T05:14:30.616Z,11.30
2017-10-13T05:15:05.100Z,11.30
2017-10-13T05:15:39.134Z,11.30
2017-10-13T05:16:12.851Z,11.20
2017-10-13T05:16:46.602Z,11.20
2017-10-13T05:17:21.079Z,11.20
2017-10-13T05:17:54.784Z,11.20
2017-10-13T05:18:28.488Z,11.20
2017-10-13T05:19:02.955Z,11.20
2017-10-13T05:19:36.692Z,11.10
2017-10-13T05:20:11.163Z,11.10
2017-10-13T05:20:45.245Z,11.10
2017-10-13T05:21:19.005Z,11.10
2017-10-13T05:21:52.730Z,11.10
2017-10-13T05:22:26.443Z,11.10
2017-10-13T05:23:00.149Z,11.10
2017-10-13T05:23:33.869Z,11.20
2017-10-13T05:24:07.596Z,11.20
2017-10-13T05:24:41.333Z,11.10
2017-10-13T05:25:15.805Z,11.20
2017-10-13T05:25:49.797Z,11.20
2017-10-13T05:26:23.516Z,11.20
2017-10-13T05:26:57.048Z,11.20
2017-10-13T05:27:30.749Z,11.20
2017-10-13T05:28:04.464Z,11.30
2017-10-13T05:28:38.166Z,11.30
2017-10-13T05:29:11.859Z,11.30
2017-10-13T05:29:45.396Z,11.30
2017-10-13T05:30:19.109Z,11.30
2017-10-13T05:30:53.165Z,11.30
2017-10-13T05:31:27.042Z,11.30
2017-10-13T05:32:01.518Z,11.30
2017-10-13T05:32:35.054Z,11.30
2017-10-13T05:33:09.598Z,11.30
2017-10-13T05:33:43.307Z,11.30
2017-10-13T05:34:16.839Z,11.30
2017-10-13T05:34:50.359Z,11.30
2017-10-13T05:35:24.118Z,11.30
2017-10-13T05:35:58.927Z,11.30
2017-10-13T05:36:33.325Z,11.30
2017-10-13T05:37:07.798Z,11.30
2017-10-13T05:37:41.506Z,11.30
2017-10-13T05:38:16.729Z,11.30
2017-10-13T05:38:50.259Z,11.20
2017-10-13T05:39:23.817Z,11.20
2017-10-13T05:39:58.293Z,11.20
2017-10-13T05:40:32.005Z,11.20
2017-10-13T05:41:05.814Z,11.20
2017-10-13T05:41:40.292Z,11.20
2017-10-13T05:42:13.996Z,11.20
2017-10-13T05:42:47.746Z,11.20
2017-10-13T05:43:21.117Z,11.20
2017-10-13T05:43:54.677Z,11.10
2017-10-13T05:44:28.821Z,11.10
2017-10-13T05:45:02.559Z,11.10
2017-10-13T05:45:36.257Z,11.10
2017-10-13T05:46:11.069Z,11.10
2017-10-13T05:46:45.539Z,11.10
2017-10-13T05:47:19.243Z,11.10
2017-10-13T05:47:52.979Z,11.10
2017-10-13T05:48:26.693Z,11.00
2017-10-13T05:49:00.389Z,11.10
2017-10-13T05:49:34.100Z,11.10
2017-10-13T05:50:07.814Z,11.00
2017-10-13T05:50:42.287Z,11.10
2017-10-13T05:51:16.335Z,11.10
2017-10-13T05:51:50.805Z,11.10
2017-10-13T05:52:24.518Z,11.10
2017-10-13T05:52:58.216Z,11.10
2017-10-13T05:53:32.680Z,11.10
2017-10-13T05:54:06.383Z,11.10
2017-10-13T05:54:40.106Z,11.10
2017-10-13T05:55:14.587Z,11.10
2017-10-13T05:55:48.286Z,11.10
2017-10-13T05:56:22.423Z,11.10
2017-10-13T05:56:56.136Z,11.10
2017-10-13T05:57:29.860Z,11.10
2017-10-13T05:58:03.597Z,11.10
2017-10-13T05:58:37.308Z,11.10
2017-10-13T05:59:11.010Z,11.10
2017-10-13T05:59:44.716Z,11.10
2017-10-13T06:00:17.733Z,11.10
2017-10-13T06:00:51.080Z,11.10
2017-10-13T06:01:24.799Z,11.20
2017-10-13T06:01:58.747Z,11.10
2017-10-13T06:02:32.260Z,11.10
2017-10-13T06:03:05.633Z,11.20
2017-10-13T06:03:40.853Z,11.20
2017-10-13T06:04:14.217Z,11.10
2017-10-13T06:04:47.744Z,11.20
2017-10-13T06:05:21.526Z,11.20
2017-10-13T06:05:55.351Z,11.20
2017-10-13T06:06:28.545Z,11.20
2017-10-13T06:07:02.246Z,11.20
2017-10-13T06:07:35.258Z,11.20
2017-10-13T06:08:08.282Z,11.20
2017-10-13T06:08:41.988Z,11.20
2017-10-13T06:09:15.684Z,11.20
2017-10-13T06:09:49.218Z,11.20
2017-10-13T06:10:23.626Z,11.20
2017-10-13T06:10:58.106Z,11.20
2017-10-13T06:11:31.848Z,11.20
2017-10-13T06:12:05.222Z,11.20
2017-10-13T06:12:38.925Z,11.20
2017-10-13T06:13:12.631Z,11.20
2017-10-13T06:13:45.979Z,11.20
2017-10-13T06:14:20.450Z,11.30
2017-10-13T06:14:53.967Z,11.20
2017-10-13T06:15:27.759Z,11.30
2017-10-13T06:16:02.250Z,11.20
2017-10-13T06:16:35.971Z,11.30
2017-10-13T06:17:09.700Z,11.30
2017-10-13T06:17:43.217Z,11.30
2017-10-13T06:18:18.096Z,11.30
2017-10-13T06:18:51.841Z,11.30
2017-10-13T06:19:26.442Z,11.30
2017-10-13T06:20:00.268Z,11.30
2017-10-13T06:20:34.003Z,11.30
2017-10-13T06:21:07.698Z,11.30
2017-10-13T06:21:41.735Z,11.30
2017-10-13T06:22:15.467Z,11.30
2017-10-13T06:22:49.224Z,11.30
2017-10-13T06:23:22.942Z,11.40
2017-10-13T06:23:56.647Z,11.40
2017-10-13T06:24:30.375Z,11.40
2017-10-13T06:25:04.677Z,11.40
2017-10-13T06:25:39.300Z,11.50
2017-10-13T06:26:13.943Z,11.50
2017-10-13T06:26:48.009Z,11.40
2017-10-13T06:27:22.308Z,11.50
2017-10-13T06:27:56.606Z,11.50
2017-10-13T06:28:31.342Z,11.50
2017-10-13T06:29:04.813Z,11.50
2017-10-13T06:29:39.096Z,11.50
2017-10-13T06:30:12.821Z,11.50
2017-10-13T06:30:46.537Z,11.50
2017-10-13T06:31:20.251Z,11.50
2017-10-13T06:31:54.240Z,11.60
2017-10-13T06:32:27.955Z,11.60
2017-10-13T06:33:01.120Z,11.60
2017-10-13T06:33:34.639Z,11.60
2017-10-13T06:34:09.121Z,11.60
2017-10-13T06:34:42.844Z,11.60
2017-10-13T06:35:17.342Z,11.60
2017-10-13T06:35:52.285Z,11.60
2017-10-13T06:36:25.809Z,11.60
2017-10-13T06:36:59.659Z,11.70
2017-10-13T06:37:33.188Z,11.70
2017-10-13T06:38:06.961Z,11.70
2017-10-13T06:38:40.668Z,11.70
2017-10-13T06:39:14.404Z,11.70
2017-10-13T06:39:48.109Z,11.70
2017-10-13T06:40:21.838Z,11.80
2017-10-13T06:40:55.574Z,11.80
2017-10-13T06:41:29.741Z,11.80
2017-10-13T06:42:03.795Z,11.80
2017-10-13T06:42:37.522Z,11.80
2017-10-13T06:43:11.249Z,11.90
2017-10-13T06:43:45.758Z,11.90
2017-10-13T06:44:20.233Z,11.90
2017-10-13T06:44:53.939Z,11.90
2017-10-13T06:45:27.300Z,11.90
2017-10-13T06:46:01.080Z,11.90
2017-10-13T06:46:34.822Z,11.90
2017-10-13T06:47:09.619Z,11.90
2017-10-13T06:47:43.327Z,11.90
2017-10-13T06:48:17.068Z,11.90
2017-10-13T06:48:50.775Z,11.90
2017-10-13T06:49:24.129Z,12.00
2017-10-13T06:49:57.833Z,12.00
2017-10-13T06:50:31.192Z,12.00
2017-10-13T06:51:04.553Z,12.00
2017-10-13T06:51:38.679Z,12.10
2017-10-13T06:52:12.237Z,12.10
2017-10-13T06:52:46.708Z,12.10
2017-10-13T06:53:19.884Z,12.10
2017-10-13T06:53:53.240Z,12.10
2017-10-13T06:54:26.604Z,12.10
2017-10-13T06:54:59.989Z,12.20
2017-10-13T06:55:33.352Z,12.20
2017-10-13T06:56:07.472Z,12.20
2017-10-13T06:56:41.201Z,12.20
2017-10-13T06:57:14.963Z,12.30
2017-10-13T06:57:48.700Z,12.30
2017-10-13T06:58:22.082Z,12.30
2017-10-13T06:58:55.812Z,12.30
2017-10-13T06:59:29.524Z,12.30
2017-10-13T07:00:03.567Z,12.30
2017-10-13T07:00:37.294Z,12.30
2017-10-13T07:01:11.420Z,12.40
2017-10-13T07:01:45.432Z,12.40
2017-10-13T07:02:19.187Z,12.40
2017-10-13T07:02:52.891Z,12.40
2017-10-13T07:03:26.603Z,12.40
2017-10-13T07:04:00.331Z,12.40
2017-10-13T07:04:34.460Z,12.50
2017-10-13T07:05:07.837Z,12.50
2017-10-13T07:05:41.208Z,12.50
2017-10-13T07:06:15.344Z,12.50
2017-10-13T07:06:48.734Z,12.50
2017-10-13T07:07:22.812Z,12.50
2017-10-13T07:07:56.587Z,12.50
2017-10-13T07:08:31.055Z,12.60
2017-10-13T07:09:03.877Z,12.50
2017-10-13T07:09:37.601Z,12.60
2017-10-13T07:10:10.611Z,12.60
2017-10-13T07:10:43.621Z,12.60
2017-10-13T07:11:16.652Z,12.60
2017-10-13T07:11:50.383Z,12.60
2017-10-13T07:12:24.476Z,12.60
2017-10-13T07:12:58.197Z,12.60
2017-10-13T07:13:31.902Z,12.60
2017-10-13T07:14:05.613Z,12.60
2017-10-13T07:14:40.545Z,12.60
2017-10-13T07:15:15.020Z,12.60
2017-10-13T07:15:48.725Z,12.60
2017-10-13T07:16:22.451Z,12.50
2017-10-13T07:16:56.228Z,12.50